sensor_id;sensor_type;location;lat;lon;timestamp;P1;durP1;ratioP1;P2;durP2;ratioP2
14342;SDS011;7255;53.596;9.960;2022-12-18T00:02:02;21.30;;;15.27;;
14342;SDS011;7255;53.596;9.960;2022-12-18T00:04:29;24.03;;;15.33;;
14342;SDS011;7255;53.596;9.960;2022-12-18T00:06:55;21.23;;;14.70;;
14342;SDS011;7255;53.596;9.960;2022-12-18T00:09:23;22.37;;;14.00;;
14342;SDS011;7255;53.596;9.960;2022-12-18T00:11:49;21.23;;;16.13;;
14342;SDS011;7255;53.596;9.960;2022-12-18T00:14:16;22.63;;;15.23;;
14342;SDS011;7255;53.596;9.960;2022-12-18T00:16:43;22.73;;;14.97;;
14342;SDS011;7255;53.596;9.960;2022-12-18T00:19:10;16.47;;;14.10;;
14342;SDS011;7255;53.596;9.960;2022-12-18T00:21:37;20.00;;;14.90;;
14342;SDS011;7255;53.596;9.960;2022-12-18T00:24:03;22.43;;;15.57;;
14342;SDS011;7255;53.596;9.960;2022-12-18T00:26:32;21.47;;;14.67;;
14342;SDS011;7255;53.596;9.960;2022-12-18T00:29:00;19.07;;;15.03;;
14342;SDS011;7255;53.596;9.960;2022-12-18T00:31:28;19.07;;;14.80;;
14342;SDS011;7255;53.596;9.960;2022-12-18T00:33:55;21.93;;;15.13;;
14342;SDS011;7255;53.596;9.960;2022-12-18T00:36:23;18.00;;;14.80;;
14342;SDS011;7255;53.596;9.960;2022-12-18T00:38:52;16.83;;;14.40;;
14342;SDS011;7255;53.596;9.960;2022-12-18T00:41:19;18.77;;;14.57;;
14342;SDS011;7255;53.596;9.960;2022-12-18T00:44:01;18.83;;;14.50;;
14342;SDS011;7255;53.596;9.960;2022-12-18T00:46:29;19.57;;;14.53;;
14342;SDS011;7255;53.596;9.960;2022-12-18T00:48:55;19.97;;;14.97;;
14342;SDS011;7255;53.596;9.960;2022-12-18T00:51:22;19.60;;;14.23;;
14342;SDS011;7255;53.596;9.960;2022-12-18T00:53:48;18.37;;;14.77;;
14342;SDS011;7255;53.596;9.960;2022-12-18T00:56:14;19.53;;;14.43;;
14342;SDS011;7255;53.596;9.960;2022-12-18T00:58:41;18.53;;;14.37;;
14342;SDS011;7255;53.596;9.960;2022-12-18T01:01:08;20.80;;;13.57;;
14342;SDS011;7255;53.596;9.960;2022-12-18T01:03:35;21.23;;;15.53;;
14342;SDS011;7255;53.596;9.960;2022-12-18T01:06:05;21.63;;;15.10;;
14342;SDS011;7255;53.596;9.960;2022-12-18T01:08:32;21.77;;;15.10;;
14342;SDS011;7255;53.596;9.960;2022-12-18T01:10:58;22.93;;;14.53;;
14342;SDS011;7255;53.596;9.960;2022-12-18T01:13:25;19.57;;;13.73;;
14342;SDS011;7255;53.596;9.960;2022-12-18T01:15:51;18.87;;;14.80;;
14342;SDS011;7255;53.596;9.960;2022-12-18T01:18:19;21.67;;;14.77;;
14342;SDS011;7255;53.596;9.960;2022-12-18T01:20:45;17.17;;;14.30;;
14342;SDS011;7255;53.596;9.960;2022-12-18T01:23:11;20.43;;;14.63;;
14342;SDS011;7255;53.596;9.960;2022-12-18T01:25:38;18.63;;;15.17;;
14342;SDS011;7255;53.596;9.960;2022-12-18T01:28:04;19.13;;;14.30;;
14342;SDS011;7255;53.596;9.960;2022-12-18T01:30:30;25.60;;;15.13;;
14342;SDS011;7255;53.596;9.960;2022-12-18T01:32:57;19.80;;;14.33;;
14342;SDS011;7255;53.596;9.960;2022-12-18T01:35:28;18.40;;;13.20;;
14342;SDS011;7255;53.596;9.960;2022-12-18T01:37:54;24.10;;;14.30;;
14342;SDS011;7255;53.596;9.960;2022-12-18T01:40:21;18.77;;;14.80;;
14342;SDS011;7255;53.596;9.960;2022-12-18T01:42:49;20.43;;;14.40;;
14342;SDS011;7255;53.596;9.960;2022-12-18T01:45:24;22.87;;;14.70;;
14342;SDS011;7255;53.596;9.960;2022-12-18T01:47:53;21.77;;;14.80;;
14342;SDS011;7255;53.596;9.960;2022-12-18T01:50:22;20.03;;;14.23;;
14342;SDS011;7255;53.596;9.960;2022-12-18T01:52:52;21.97;;;13.63;;
14342;SDS011;7255;53.596;9.960;2022-12-18T01:55:22;17.47;;;13.63;;
14342;SDS011;7255;53.596;9.960;2022-12-18T01:57:51;20.53;;;13.70;;
14342;SDS011;7255;53.596;9.960;2022-12-18T02:00:20;18.27;;;14.67;;
14342;SDS011;7255;53.596;9.960;2022-12-18T02:02:48;23.07;;;13.87;;
14342;SDS011;7255;53.596;9.960;2022-12-18T02:05:15;18.37;;;14.57;;
14342;SDS011;7255;53.596;9.960;2022-12-18T02:07:46;19.23;;;13.60;;
14342;SDS011;7255;53.596;9.960;2022-12-18T02:10:26;19.77;;;13.90;;
14342;SDS011;7255;53.596;9.960;2022-12-18T02:12:56;23.40;;;13.17;;
14342;SDS011;7255;53.596;9.960;2022-12-18T02:15:34;18.23;;;13.30;;
14342;SDS011;7255;53.596;9.960;2022-12-18T02:18:05;21.63;;;13.47;;
14342;SDS011;7255;53.596;9.960;2022-12-18T02:20:36;21.00;;;14.40;;
14342;SDS011;7255;53.596;9.960;2022-12-18T02:23:11;18.17;;;13.00;;
14342;SDS011;7255;53.596;9.960;2022-12-18T02:25:56;16.57;;;13.73;;
14342;SDS011;7255;53.596;9.960;2022-12-18T02:28:33;21.00;;;14.33;;
14342;SDS011;7255;53.596;9.960;2022-12-18T02:31:03;17.73;;;13.93;;
14342;SDS011;7255;53.596;9.960;2022-12-18T02:33:33;19.93;;;13.27;;
14342;SDS011;7255;53.596;9.960;2022-12-18T02:36:02;18.87;;;13.57;;
14342;SDS011;7255;53.596;9.960;2022-12-18T02:38:30;16.67;;;13.97;;
14342;SDS011;7255;53.596;9.960;2022-12-18T02:40:59;26.47;;;14.63;;
14342;SDS011;7255;53.596;9.960;2022-12-18T02:43:26;21.27;;;13.43;;
14342;SDS011;7255;53.596;9.960;2022-12-18T02:45:55;18.00;;;13.23;;
14342;SDS011;7255;53.596;9.960;2022-12-18T02:48:24;15.33;;;12.97;;
14342;SDS011;7255;53.596;9.960;2022-12-18T02:50:53;19.17;;;13.70;;
14342;SDS011;7255;53.596;9.960;2022-12-18T02:53:27;20.20;;;13.60;;
14342;SDS011;7255;53.596;9.960;2022-12-18T02:56:03;19.50;;;14.33;;
14342;SDS011;7255;53.596;9.960;2022-12-18T02:58:34;22.40;;;13.47;;
14342;SDS011;7255;53.596;9.960;2022-12-18T03:01:11;17.07;;;11.80;;
14342;SDS011;7255;53.596;9.960;2022-12-18T03:03:46;19.23;;;12.50;;
14342;SDS011;7255;53.596;9.960;2022-12-18T03:06:18;16.67;;;12.87;;
14342;SDS011;7255;53.596;9.960;2022-12-18T03:08:49;16.60;;;12.67;;
14342;SDS011;7255;53.596;9.960;2022-12-18T03:11:20;17.33;;;12.60;;
14342;SDS011;7255;53.596;9.960;2022-12-18T03:14:06;19.10;;;12.90;;
14342;SDS011;7255;53.596;9.960;2022-12-18T03:16:33;16.40;;;12.43;;
14342;SDS011;7255;53.596;9.960;2022-12-18T03:19:02;17.10;;;12.67;;
14342;SDS011;7255;53.596;9.960;2022-12-18T03:21:33;15.83;;;13.07;;
14342;SDS011;7255;53.596;9.960;2022-12-18T03:24:07;15.10;;;12.20;;
14342;SDS011;7255;53.596;9.960;2022-12-18T03:26:36;18.30;;;12.43;;
14342;SDS011;7255;53.596;9.960;2022-12-18T03:29:07;18.90;;;11.77;;
14342;SDS011;7255;53.596;9.960;2022-12-18T03:31:40;16.07;;;13.33;;
14342;SDS011;7255;53.596;9.960;2022-12-18T03:34:12;16.10;;;12.17;;
14342;SDS011;7255;53.596;9.960;2022-12-18T03:36:42;15.80;;;12.93;;
14342;SDS011;7255;53.596;9.960;2022-12-18T03:39:08;19.20;;;12.30;;
14342;SDS011;7255;53.596;9.960;2022-12-18T03:41:37;13.27;;;11.80;;
14342;SDS011;7255;53.596;9.960;2022-12-18T03:44:11;16.63;;;12.60;;
14342;SDS011;7255;53.596;9.960;2022-12-18T03:46:41;13.40;;;12.10;;
14342;SDS011;7255;53.596;9.960;2022-12-18T03:49:18;15.97;;;11.83;;
14342;SDS011;7255;53.596;9.960;2022-12-18T03:51:52;15.83;;;12.37;;
14342;SDS011;7255;53.596;9.960;2022-12-18T03:54:23;16.03;;;11.40;;
14342;SDS011;7255;53.596;9.960;2022-12-18T03:56:53;16.70;;;13.43;;
14342;SDS011;7255;53.596;9.960;2022-12-18T03:59:24;18.03;;;13.20;;
14342;SDS011;7255;53.596;9.960;2022-12-18T04:01:53;16.33;;;12.23;;
14342;SDS011;7255;53.596;9.960;2022-12-18T04:04:22;18.47;;;13.20;;
14342;SDS011;7255;53.596;9.960;2022-12-18T04:06:51;16.90;;;13.03;;
14342;SDS011;7255;53.596;9.960;2022-12-18T04:09:18;17.67;;;11.97;;
14342;SDS011;7255;53.596;9.960;2022-12-18T04:11:46;14.87;;;11.97;;
14342;SDS011;7255;53.596;9.960;2022-12-18T04:14:14;19.67;;;13.73;;
14342;SDS011;7255;53.596;9.960;2022-12-18T04:16:40;20.43;;;13.03;;
14342;SDS011;7255;53.596;9.960;2022-12-18T04:19:06;19.60;;;11.93;;
14342;SDS011;7255;53.596;9.960;2022-12-18T04:21:33;16.77;;;12.23;;
14342;SDS011;7255;53.596;9.960;2022-12-18T04:23:59;18.03;;;12.90;;
14342;SDS011;7255;53.596;9.960;2022-12-18T04:26:25;15.30;;;11.97;;
14342;SDS011;7255;53.596;9.960;2022-12-18T04:28:52;18.27;;;12.90;;
14342;SDS011;7255;53.596;9.960;2022-12-18T04:31:19;14.93;;;12.23;;
14342;SDS011;7255;53.596;9.960;2022-12-18T04:33:46;17.90;;;13.20;;
14342;SDS011;7255;53.596;9.960;2022-12-18T04:36:12;22.10;;;13.03;;
14342;SDS011;7255;53.596;9.960;2022-12-18T04:38:38;17.53;;;13.03;;
14342;SDS011;7255;53.596;9.960;2022-12-18T04:41:04;20.90;;;12.47;;
14342;SDS011;7255;53.596;9.960;2022-12-18T04:43:31;14.20;;;12.43;;
14342;SDS011;7255;53.596;9.960;2022-12-18T04:46:01;15.87;;;11.73;;
14342;SDS011;7255;53.596;9.960;2022-12-18T04:48:29;19.30;;;13.73;;
14342;SDS011;7255;53.596;9.960;2022-12-18T04:50:56;17.70;;;12.30;;
14342;SDS011;7255;53.596;9.960;2022-12-18T04:53:22;18.53;;;13.20;;
14342;SDS011;7255;53.596;9.960;2022-12-18T04:55:48;15.43;;;12.90;;
14342;SDS011;7255;53.596;9.960;2022-12-18T04:58:15;15.87;;;12.37;;
14342;SDS011;7255;53.596;9.960;2022-12-18T05:00:41;16.43;;;12.80;;
14342;SDS011;7255;53.596;9.960;2022-12-18T05:03:07;17.27;;;13.27;;
14342;SDS011;7255;53.596;9.960;2022-12-18T05:05:35;17.70;;;12.93;;
14342;SDS011;7255;53.596;9.960;2022-12-18T05:08:01;13.97;;;12.33;;
14342;SDS011;7255;53.596;9.960;2022-12-18T05:10:28;19.93;;;12.30;;
14342;SDS011;7255;53.596;9.960;2022-12-18T05:12:54;16.93;;;12.33;;
14342;SDS011;7255;53.596;9.960;2022-12-18T05:15:24;19.17;;;13.03;;
14342;SDS011;7255;53.596;9.960;2022-12-18T05:17:52;18.40;;;12.13;;
14342;SDS011;7255;53.596;9.960;2022-12-18T05:20:18;19.40;;;12.70;;
14342;SDS011;7255;53.596;9.960;2022-12-18T05:22:46;15.00;;;12.63;;
14342;SDS011;7255;53.596;9.960;2022-12-18T05:25:12;15.67;;;13.07;;
14342;SDS011;7255;53.596;9.960;2022-12-18T05:27:39;18.47;;;13.53;;
14342;SDS011;7255;53.596;9.960;2022-12-18T05:30:05;15.87;;;12.80;;
14342;SDS011;7255;53.596;9.960;2022-12-18T05:32:33;16.90;;;13.80;;
14342;SDS011;7255;53.596;9.960;2022-12-18T05:34:59;17.10;;;12.63;;
14342;SDS011;7255;53.596;9.960;2022-12-18T05:37:25;16.00;;;12.37;;
14342;SDS011;7255;53.596;9.960;2022-12-18T05:39:53;19.17;;;13.33;;
14342;SDS011;7255;53.596;9.960;2022-12-18T05:42:19;16.67;;;11.70;;
14342;SDS011;7255;53.596;9.960;2022-12-18T05:44:46;15.00;;;12.13;;
14342;SDS011;7255;53.596;9.960;2022-12-18T05:47:12;13.87;;;11.60;;
14342;SDS011;7255;53.596;9.960;2022-12-18T05:49:38;17.23;;;12.07;;
14342;SDS011;7255;53.596;9.960;2022-12-18T05:52:05;15.80;;;12.03;;
14342;SDS011;7255;53.596;9.960;2022-12-18T05:54:31;16.13;;;12.60;;
14342;SDS011;7255;53.596;9.960;2022-12-18T05:56:59;15.60;;;11.33;;
14342;SDS011;7255;53.596;9.960;2022-12-18T05:59:25;17.17;;;12.57;;
14342;SDS011;7255;53.596;9.960;2022-12-18T06:01:52;17.43;;;12.67;;
14342;SDS011;7255;53.596;9.960;2022-12-18T06:04:18;13.27;;;10.90;;
14342;SDS011;7255;53.596;9.960;2022-12-18T06:06:44;18.60;;;12.53;;
14342;SDS011;7255;53.596;9.960;2022-12-18T06:09:11;17.67;;;12.47;;
14342;SDS011;7255;53.596;9.960;2022-12-18T06:11:37;14.77;;;11.73;;
14342;SDS011;7255;53.596;9.960;2022-12-18T06:14:05;13.77;;;11.47;;
14342;SDS011;7255;53.596;9.960;2022-12-18T06:16:32;14.33;;;11.10;;
14342;SDS011;7255;53.596;9.960;2022-12-18T06:18:59;17.40;;;12.47;;
14342;SDS011;7255;53.596;9.960;2022-12-18T06:21:27;14.10;;;11.40;;
14342;SDS011;7255;53.596;9.960;2022-12-18T06:23:54;15.57;;;11.60;;
14342;SDS011;7255;53.596;9.960;2022-12-18T06:26:20;16.17;;;12.27;;
14342;SDS011;7255;53.596;9.960;2022-12-18T06:28:46;15.17;;;12.60;;
14342;SDS011;7255;53.596;9.960;2022-12-18T06:31:14;18.07;;;11.57;;
14342;SDS011;7255;53.596;9.960;2022-12-18T06:33:41;15.77;;;11.83;;
14342;SDS011;7255;53.596;9.960;2022-12-18T06:36:08;14.23;;;11.53;;
14342;SDS011;7255;53.596;9.960;2022-12-18T06:38:36;15.20;;;11.80;;
14342;SDS011;7255;53.596;9.960;2022-12-18T06:41:07;13.83;;;12.17;;
14342;SDS011;7255;53.596;9.960;2022-12-18T06:43:34;15.83;;;11.93;;
14342;SDS011;7255;53.596;9.960;2022-12-18T06:46:00;14.93;;;11.10;;
14342;SDS011;7255;53.596;9.960;2022-12-18T06:48:28;16.17;;;12.23;;
14342;SDS011;7255;53.596;9.960;2022-12-18T06:50:55;13.07;;;10.37;;
14342;SDS011;7255;53.596;9.960;2022-12-18T06:53:21;18.50;;;11.53;;
14342;SDS011;7255;53.596;9.960;2022-12-18T06:55:47;15.73;;;12.57;;
14342;SDS011;7255;53.596;9.960;2022-12-18T06:58:14;18.67;;;12.90;;
14342;SDS011;7255;53.596;9.960;2022-12-18T07:00:40;16.17;;;12.37;;
14342;SDS011;7255;53.596;9.960;2022-12-18T07:03:07;14.67;;;12.23;;
14342;SDS011;7255;53.596;9.960;2022-12-18T07:05:35;14.27;;;11.70;;
14342;SDS011;7255;53.596;9.960;2022-12-18T07:08:05;14.47;;;11.63;;
14342;SDS011;7255;53.596;9.960;2022-12-18T07:10:32;15.20;;;12.13;;
14342;SDS011;7255;53.596;9.960;2022-12-18T07:12:58;18.43;;;12.27;;
14342;SDS011;7255;53.596;9.960;2022-12-18T07:15:25;14.07;;;11.77;;
14342;SDS011;7255;53.596;9.960;2022-12-18T07:17:51;24.63;;;12.67;;
14342;SDS011;7255;53.596;9.960;2022-12-18T07:20:17;14.63;;;11.87;;
14342;SDS011;7255;53.596;9.960;2022-12-18T07:22:45;16.50;;;12.73;;
14342;SDS011;7255;53.596;9.960;2022-12-18T07:25:11;16.17;;;12.20;;
14342;SDS011;7255;53.596;9.960;2022-12-18T07:27:37;15.30;;;12.60;;
14342;SDS011;7255;53.596;9.960;2022-12-18T07:30:04;19.77;;;11.90;;
14342;SDS011;7255;53.596;9.960;2022-12-18T07:32:31;17.77;;;12.87;;
14342;SDS011;7255;53.596;9.960;2022-12-18T07:34:58;16.87;;;11.87;;
14342;SDS011;7255;53.596;9.960;2022-12-18T07:37:24;16.07;;;11.83;;
14342;SDS011;7255;53.596;9.960;2022-12-18T07:39:52;15.40;;;12.50;;
14342;SDS011;7255;53.596;9.960;2022-12-18T07:42:18;17.17;;;12.13;;
14342;SDS011;7255;53.596;9.960;2022-12-18T07:44:56;18.87;;;13.23;;
14342;SDS011;7255;53.596;9.960;2022-12-18T07:47:22;13.57;;;12.13;;
14342;SDS011;7255;53.596;9.960;2022-12-18T07:49:49;14.77;;;11.73;;
14342;SDS011;7255;53.596;9.960;2022-12-18T07:52:16;16.97;;;11.77;;
14342;SDS011;7255;53.596;9.960;2022-12-18T07:54:42;17.27;;;11.97;;
14342;SDS011;7255;53.596;9.960;2022-12-18T07:57:09;15.63;;;13.10;;
14342;SDS011;7255;53.596;9.960;2022-12-18T07:59:36;16.13;;;12.53;;
14342;SDS011;7255;53.596;9.960;2022-12-18T08:02:03;14.33;;;12.13;;
14342;SDS011;7255;53.596;9.960;2022-12-18T08:04:29;14.23;;;11.97;;
14342;SDS011;7255;53.596;9.960;2022-12-18T08:06:55;17.43;;;12.80;;
14342;SDS011;7255;53.596;9.960;2022-12-18T08:09:21;17.00;;;12.90;;
14342;SDS011;7255;53.596;9.960;2022-12-18T08:11:48;15.17;;;13.00;;
14342;SDS011;7255;53.596;9.960;2022-12-18T08:14:15;16.10;;;12.17;;
14342;SDS011;7255;53.596;9.960;2022-12-18T08:16:42;17.00;;;12.97;;
14342;SDS011;7255;53.596;9.960;2022-12-18T08:19:08;17.13;;;13.50;;
14342;SDS011;7255;53.596;9.960;2022-12-18T08:21:35;20.43;;;13.97;;
14342;SDS011;7255;53.596;9.960;2022-12-18T08:24:01;14.97;;;13.40;;
14342;SDS011;7255;53.596;9.960;2022-12-18T08:26:28;16.47;;;12.77;;
14342;SDS011;7255;53.596;9.960;2022-12-18T08:28:56;13.97;;;11.90;;
14342;SDS011;7255;53.596;9.960;2022-12-18T08:31:25;17.50;;;12.23;;
14342;SDS011;7255;53.596;9.960;2022-12-18T08:33:52;14.80;;;11.33;;
14342;SDS011;7255;53.596;9.960;2022-12-18T08:36:19;18.30;;;12.33;;
14342;SDS011;7255;53.596;9.960;2022-12-18T08:38:46;21.17;;;12.63;;
14342;SDS011;7255;53.596;9.960;2022-12-18T08:41:13;15.13;;;12.93;;
14342;SDS011;7255;53.596;9.960;2022-12-18T08:43:41;16.30;;;12.57;;
14342;SDS011;7255;53.596;9.960;2022-12-18T08:46:31;15.70;;;12.10;;
14342;SDS011;7255;53.596;9.960;2022-12-18T08:49:00;17.37;;;12.23;;
14342;SDS011;7255;53.596;9.960;2022-12-18T08:51:26;15.80;;;12.20;;
14342;SDS011;7255;53.596;9.960;2022-12-18T08:53:52;18.60;;;12.60;;
14342;SDS011;7255;53.596;9.960;2022-12-18T08:56:19;16.80;;;12.53;;
14342;SDS011;7255;53.596;9.960;2022-12-18T08:58:45;19.37;;;13.03;;
14342;SDS011;7255;53.596;9.960;2022-12-18T09:01:12;17.00;;;13.23;;
14342;SDS011;7255;53.596;9.960;2022-12-18T09:03:40;18.43;;;13.20;;
14342;SDS011;7255;53.596;9.960;2022-12-18T09:06:07;17.27;;;13.03;;
14342;SDS011;7255;53.596;9.960;2022-12-18T09:08:34;17.07;;;13.00;;
14342;SDS011;7255;53.596;9.960;2022-12-18T09:11:01;14.67;;;12.70;;
14342;SDS011;7255;53.596;9.960;2022-12-18T09:13:28;15.90;;;12.53;;
14342;SDS011;7255;53.596;9.960;2022-12-18T09:15:54;18.27;;;13.90;;
14342;SDS011;7255;53.596;9.960;2022-12-18T09:18:21;15.20;;;13.20;;
14342;SDS011;7255;53.596;9.960;2022-12-18T09:20:50;18.53;;;13.13;;
14342;SDS011;7255;53.596;9.960;2022-12-18T09:23:17;19.53;;;12.33;;
14342;SDS011;7255;53.596;9.960;2022-12-18T09:25:44;17.10;;;12.40;;
14342;SDS011;7255;53.596;9.960;2022-12-18T09:28:11;16.67;;;12.63;;
14342;SDS011;7255;53.596;9.960;2022-12-18T09:30:39;18.30;;;12.37;;
14342;SDS011;7255;53.596;9.960;2022-12-18T09:33:06;19.77;;;12.50;;
14342;SDS011;7255;53.596;9.960;2022-12-18T09:35:35;15.47;;;12.30;;
14342;SDS011;7255;53.596;9.960;2022-12-18T09:38:07;16.63;;;12.83;;
14342;SDS011;7255;53.596;9.960;2022-12-18T09:40:39;17.73;;;13.23;;
14342;SDS011;7255;53.596;9.960;2022-12-18T09:43:10;20.57;;;13.37;;
14342;SDS011;7255;53.596;9.960;2022-12-18T09:45:42;17.60;;;13.90;;
14342;SDS011;7255;53.596;9.960;2022-12-18T09:48:13;20.50;;;14.13;;
14342;SDS011;7255;53.596;9.960;2022-12-18T09:50:43;19.03;;;13.10;;
14342;SDS011;7255;53.596;9.960;2022-12-18T09:53:14;16.37;;;12.77;;
14342;SDS011;7255;53.596;9.960;2022-12-18T09:55:45;17.23;;;12.27;;
14342;SDS011;7255;53.596;9.960;2022-12-18T09:58:15;15.17;;;12.90;;
14342;SDS011;7255;53.596;9.960;2022-12-18T10:00:46;14.23;;;11.67;;
14342;SDS011;7255;53.596;9.960;2022-12-18T10:03:13;16.67;;;13.10;;
14342;SDS011;7255;53.596;9.960;2022-12-18T10:05:42;17.60;;;12.27;;
14342;SDS011;7255;53.596;9.960;2022-12-18T10:08:19;14.73;;;12.20;;
14342;SDS011;7255;53.596;9.960;2022-12-18T10:10:51;17.23;;;12.03;;
14342;SDS011;7255;53.596;9.960;2022-12-18T10:13:21;15.53;;;12.03;;
14342;SDS011;7255;53.596;9.960;2022-12-18T10:15:57;13.80;;;12.07;;
14342;SDS011;7255;53.596;9.960;2022-12-18T10:18:32;15.47;;;12.13;;
14342;SDS011;7255;53.596;9.960;2022-12-18T10:21:11;20.80;;;12.23;;
14342;SDS011;7255;53.596;9.960;2022-12-18T10:23:44;17.33;;;12.37;;
14342;SDS011;7255;53.596;9.960;2022-12-18T10:26:19;21.47;;;11.77;;
14342;SDS011;7255;53.596;9.960;2022-12-18T10:28:46;19.20;;;11.90;;
14342;SDS011;7255;53.596;9.960;2022-12-18T10:31:13;14.13;;;11.43;;
14342;SDS011;7255;53.596;9.960;2022-12-18T10:33:41;15.53;;;11.20;;
14342;SDS011;7255;53.596;9.960;2022-12-18T10:36:08;14.20;;;10.70;;
14342;SDS011;7255;53.596;9.960;2022-12-18T10:38:35;13.90;;;10.67;;
14342;SDS011;7255;53.596;9.960;2022-12-18T10:41:03;16.33;;;11.27;;
14342;SDS011;7255;53.596;9.960;2022-12-18T10:43:31;17.37;;;11.53;;
14342;SDS011;7255;53.596;9.960;2022-12-18T10:46:00;15.20;;;11.13;;
14342;SDS011;7255;53.596;9.960;2022-12-18T10:48:29;13.43;;;10.20;;
14342;SDS011;7255;53.596;9.960;2022-12-18T10:50:56;12.93;;;10.53;;
14342;SDS011;7255;53.596;9.960;2022-12-18T10:53:23;14.97;;;10.57;;
14342;SDS011;7255;53.596;9.960;2022-12-18T10:55:52;12.10;;;9.90;;
14342;SDS011;7255;53.596;9.960;2022-12-18T10:58:23;12.77;;;10.17;;
14342;SDS011;7255;53.596;9.960;2022-12-18T11:01:04;13.90;;;10.90;;
14342;SDS011;7255;53.596;9.960;2022-12-18T11:03:33;11.67;;;10.30;;
14342;SDS011;7255;53.596;9.960;2022-12-18T11:06:02;13.67;;;10.20;;
14342;SDS011;7255;53.596;9.960;2022-12-18T11:08:30;15.73;;;11.47;;
14342;SDS011;7255;53.596;9.960;2022-12-18T11:10:57;14.83;;;11.07;;
14342;SDS011;7255;53.596;9.960;2022-12-18T11:13:25;14.33;;;11.07;;
14342;SDS011;7255;53.596;9.960;2022-12-18T11:15:53;14.40;;;10.70;;
14342;SDS011;7255;53.596;9.960;2022-12-18T11:18:22;14.63;;;11.00;;
14342;SDS011;7255;53.596;9.960;2022-12-18T11:20:52;17.27;;;11.17;;
14342;SDS011;7255;53.596;9.960;2022-12-18T11:23:20;15.13;;;11.30;;
14342;SDS011;7255;53.596;9.960;2022-12-18T11:25:56;14.83;;;10.23;;
14342;SDS011;7255;53.596;9.960;2022-12-18T11:28:29;15.67;;;11.30;;
14342;SDS011;7255;53.596;9.960;2022-12-18T11:33:59;17.40;;;10.67;;
14342;SDS011;7255;53.596;9.960;2022-12-18T11:36:30;15.10;;;10.60;;
14342;SDS011;7255;53.596;9.960;2022-12-18T11:39:00;15.53;;;11.13;;
14342;SDS011;7255;53.596;9.960;2022-12-18T11:41:32;15.47;;;12.80;;
14342;SDS011;7255;53.596;9.960;2022-12-18T11:44:22;16.57;;;12.37;;
14342;SDS011;7255;53.596;9.960;2022-12-18T11:46:53;17.33;;;11.33;;
14342;SDS011;7255;53.596;9.960;2022-12-18T11:49:25;14.20;;;10.63;;
14342;SDS011;7255;53.596;9.960;2022-12-18T11:51:55;16.77;;;11.33;;
14342;SDS011;7255;53.596;9.960;2022-12-18T11:54:28;14.17;;;11.30;;
14342;SDS011;7255;53.596;9.960;2022-12-18T11:56:55;15.93;;;10.90;;
14342;SDS011;7255;53.596;9.960;2022-12-18T11:59:33;17.73;;;12.23;;
14342;SDS011;7255;53.596;9.960;2022-12-18T12:02:13;17.03;;;12.53;;
14342;SDS011;7255;53.596;9.960;2022-12-18T12:04:59;14.37;;;11.43;;
14342;SDS011;7255;53.596;9.960;2022-12-18T12:07:41;19.43;;;13.53;;
14342;SDS011;7255;53.596;9.960;2022-12-18T12:10:18;15.73;;;11.93;;
14342;SDS011;7255;53.596;9.960;2022-12-18T12:12:59;16.83;;;12.77;;
14342;SDS011;7255;53.596;9.960;2022-12-18T12:15:42;17.27;;;12.77;;
14342;SDS011;7255;53.596;9.960;2022-12-18T12:18:20;20.63;;;13.60;;
14342;SDS011;7255;53.596;9.960;2022-12-18T12:20:53;20.23;;;13.67;;
14342;SDS011;7255;53.596;9.960;2022-12-18T12:23:30;19.07;;;14.90;;
14342;SDS011;7255;53.596;9.960;2022-12-18T12:26:06;18.80;;;13.13;;
14342;SDS011;7255;53.596;9.960;2022-12-18T12:28:41;20.30;;;12.80;;
14342;SDS011;7255;53.596;9.960;2022-12-18T12:31:19;17.43;;;12.27;;
14342;SDS011;7255;53.596;9.960;2022-12-18T12:33:55;20.93;;;12.80;;
14342;SDS011;7255;53.596;9.960;2022-12-18T12:36:29;18.73;;;11.57;;
14342;SDS011;7255;53.596;9.960;2022-12-18T12:39:05;19.73;;;13.10;;
14342;SDS011;7255;53.596;9.960;2022-12-18T12:41:34;17.50;;;12.90;;
14342;SDS011;7255;53.596;9.960;2022-12-18T12:44:22;18.87;;;11.53;;
14342;SDS011;7255;53.596;9.960;2022-12-18T12:46:54;18.10;;;12.77;;
14342;SDS011;7255;53.596;9.960;2022-12-18T12:49:25;17.77;;;12.20;;
14342;SDS011;7255;53.596;9.960;2022-12-18T12:51:56;16.27;;;11.90;;
14342;SDS011;7255;53.596;9.960;2022-12-18T12:54:30;15.90;;;11.80;;
14342;SDS011;7255;53.596;9.960;2022-12-18T12:56:59;16.87;;;12.43;;
14342;SDS011;7255;53.596;9.960;2022-12-18T12:59:31;19.10;;;12.03;;
14342;SDS011;7255;53.596;9.960;2022-12-18T13:02:10;16.37;;;13.33;;
14342;SDS011;7255;53.596;9.960;2022-12-18T13:04:45;16.80;;;12.17;;
14342;SDS011;7255;53.596;9.960;2022-12-18T13:07:17;17.63;;;11.93;;
14342;SDS011;7255;53.596;9.960;2022-12-18T13:12:54;18.37;;;12.47;;
14342;SDS011;7255;53.596;9.960;2022-12-18T13:15:21;20.13;;;13.17;;
14342;SDS011;7255;53.596;9.960;2022-12-18T13:18:02;18.77;;;12.63;;
14342;SDS011;7255;53.596;9.960;2022-12-18T13:20:32;16.93;;;12.13;;
14342;SDS011;7255;53.596;9.960;2022-12-18T13:23:00;19.00;;;13.37;;
14342;SDS011;7255;53.596;9.960;2022-12-18T13:25:34;18.67;;;12.73;;
14342;SDS011;7255;53.596;9.960;2022-12-18T13:28:06;16.27;;;12.20;;
14342;SDS011;7255;53.596;9.960;2022-12-18T13:30:50;17.63;;;11.90;;
14342;SDS011;7255;53.596;9.960;2022-12-18T13:36:25;18.77;;;12.63;;
14342;SDS011;7255;53.596;9.960;2022-12-18T13:39:10;19.20;;;12.80;;
14342;SDS011;7255;53.596;9.960;2022-12-18T13:45:37;19.77;;;13.87;;
14342;SDS011;7255;53.596;9.960;2022-12-18T13:48:12;20.27;;;13.87;;
14342;SDS011;7255;53.596;9.960;2022-12-18T13:50:43;21.73;;;14.17;;
14342;SDS011;7255;53.596;9.960;2022-12-18T13:53:16;20.10;;;13.23;;
14342;SDS011;7255;53.596;9.960;2022-12-18T13:55:47;24.00;;;15.60;;
14342;SDS011;7255;53.596;9.960;2022-12-18T13:58:15;23.07;;;15.03;;
14342;SDS011;7255;53.596;9.960;2022-12-18T14:00:42;21.27;;;14.10;;
14342;SDS011;7255;53.596;9.960;2022-12-18T14:03:15;22.87;;;15.10;;
14342;SDS011;7255;53.596;9.960;2022-12-18T14:05:45;24.30;;;14.37;;
14342;SDS011;7255;53.596;9.960;2022-12-18T14:08:13;19.93;;;13.23;;
14342;SDS011;7255;53.596;9.960;2022-12-18T14:10:41;25.93;;;15.80;;
14342;SDS011;7255;53.596;9.960;2022-12-18T14:13:08;24.53;;;15.37;;
14342;SDS011;7255;53.596;9.960;2022-12-18T14:15:36;26.07;;;14.27;;
14342;SDS011;7255;53.596;9.960;2022-12-18T14:18:12;22.93;;;14.27;;
14342;SDS011;7255;53.596;9.960;2022-12-18T14:20:47;25.73;;;15.47;;
14342;SDS011;7255;53.596;9.960;2022-12-18T14:23:28;24.80;;;14.23;;
14342;SDS011;7255;53.596;9.960;2022-12-18T14:25:56;23.13;;;14.07;;
14342;SDS011;7255;53.596;9.960;2022-12-18T14:28:22;24.10;;;14.40;;
14342;SDS011;7255;53.596;9.960;2022-12-18T14:30:50;25.77;;;15.40;;
14342;SDS011;7255;53.596;9.960;2022-12-18T14:33:17;23.50;;;14.43;;
14342;SDS011;7255;53.596;9.960;2022-12-18T14:35:53;24.83;;;15.20;;
14342;SDS011;7255;53.596;9.960;2022-12-18T14:38:23;21.33;;;14.67;;
14342;SDS011;7255;53.596;9.960;2022-12-18T14:40:52;22.87;;;14.53;;
14342;SDS011;7255;53.596;9.960;2022-12-18T14:43:19;24.57;;;14.90;;
14342;SDS011;7255;53.596;9.960;2022-12-18T14:45:46;23.13;;;14.43;;
14342;SDS011;7255;53.596;9.960;2022-12-18T14:48:15;25.90;;;15.23;;
14342;SDS011;7255;53.596;9.960;2022-12-18T14:50:43;25.63;;;15.20;;
14342;SDS011;7255;53.596;9.960;2022-12-18T14:53:21;29.23;;;16.23;;
14342;SDS011;7255;53.596;9.960;2022-12-18T14:55:53;25.67;;;16.93;;
14342;SDS011;7255;53.596;9.960;2022-12-18T14:58:19;31.07;;;17.43;;
14342;SDS011;7255;53.596;9.960;2022-12-18T15:00:45;25.40;;;15.87;;